sensor_id;sensor_type;location;lat;lon;timestamp;P1;durP1;ratioP1;P2;durP2;ratioP2
72273;SDS011;60208;48.692;8.948;2023-08-06T00:00:52;2.80;;;2.47;;
72273;SDS011;60208;48.692;8.948;2023-08-06T00:04:10;3.63;;;2.20;;
72273;SDS011;60208;48.692;8.948;2023-08-06T00:07:28;2.75;;;2.40;;
72273;SDS011;60208;48.692;8.948;2023-08-06T00:10:47;2.60;;;2.40;;
72273;SDS011;60208;48.692;8.948;2023-08-06T00:14:06;6.78;;;2.60;;
72273;SDS011;60208;48.692;8.948;2023-08-06T00:17:24;2.90;;;2.45;;
72273;SDS011;60208;48.692;8.948;2023-08-06T00:20:42;6.28;;;3.08;;
72273;SDS011;60208;48.692;8.948;2023-08-06T00:24:00;4.18;;;2.50;;
72273;SDS011;60208;48.692;8.948;2023-08-06T00:27:17;3.20;;;2.85;;
72273;SDS011;60208;48.692;8.948;2023-08-06T00:30:35;3.72;;;3.17;;
72273;SDS011;60208;48.692;8.948;2023-08-06T00:33:53;3.58;;;3.13;;
72273;SDS011;60208;48.692;8.948;2023-08-06T00:37:11;5.03;;;3.33;;
72273;SDS011;60208;48.692;8.948;2023-08-06T00:40:29;3.55;;;2.92;;
72273;SDS011;60208;48.692;8.948;2023-08-06T00:43:47;6.65;;;3.40;;
72273;SDS011;60208;48.692;8.948;2023-08-06T00:47:05;3.40;;;3.10;;
72273;SDS011;60208;48.692;8.948;2023-08-06T00:50:24;4.53;;;3.38;;
72273;SDS011;60208;48.692;8.948;2023-08-06T00:53:42;6.07;;;3.92;;
72273;SDS011;60208;48.692;8.948;2023-08-06T00:57:01;3.97;;;3.53;;
72273;SDS011;60208;48.692;8.948;2023-08-06T01:00:21;3.97;;;3.60;;
72273;SDS011;60208;48.692;8.948;2023-08-06T01:03:39;4.97;;;3.85;;
72273;SDS011;60208;48.692;8.948;2023-08-06T01:07:10;5.38;;;3.55;;
72273;SDS011;60208;48.692;8.948;2023-08-06T01:17:28;5.22;;;3.22;;
72273;SDS011;60208;48.692;8.948;2023-08-06T01:20:47;4.05;;;3.05;;
72273;SDS011;60208;48.692;8.948;2023-08-06T01:24:05;7.30;;;3.20;;
72273;SDS011;60208;48.692;8.948;2023-08-06T01:27:38;3.50;;;3.20;;
72273;SDS011;60208;48.692;8.948;2023-08-06T01:31:15;3.83;;;3.20;;
72273;SDS011;60208;48.692;8.948;2023-08-06T01:34:35;3.65;;;3.33;;
72273;SDS011;60208;48.692;8.948;2023-08-06T01:37:55;4.60;;;3.50;;
72273;SDS011;60208;48.692;8.948;2023-08-06T01:41:13;4.13;;;3.50;;
72273;SDS011;60208;48.692;8.948;2023-08-06T01:44:31;6.22;;;3.38;;
72273;SDS011;60208;48.692;8.948;2023-08-06T01:47:50;6.13;;;3.45;;
72273;SDS011;60208;48.692;8.948;2023-08-06T01:51:08;3.50;;;3.10;;
72273;SDS011;60208;48.692;8.948;2023-08-06T01:54:26;4.50;;;3.20;;
72273;SDS011;60208;48.692;8.948;2023-08-06T01:57:43;3.67;;;3.15;;
72273;SDS011;60208;48.692;8.948;2023-08-06T02:01:02;2.88;;;2.58;;
72273;SDS011;60208;48.692;8.948;2023-08-06T02:04:20;3.03;;;2.60;;
72273;SDS011;60208;48.692;8.948;2023-08-06T02:07:38;4.20;;;2.78;;
72273;SDS011;60208;48.692;8.948;2023-08-06T02:10:56;4.00;;;2.60;;
72273;SDS011;60208;48.692;8.948;2023-08-06T02:14:15;4.05;;;2.72;;
72273;SDS011;60208;48.692;8.948;2023-08-06T02:17:33;6.60;;;3.20;;
72273;SDS011;60208;48.692;8.948;2023-08-06T02:20:55;6.88;;;2.90;;
72273;SDS011;60208;48.692;8.948;2023-08-06T02:24:13;4.43;;;3.30;;
72273;SDS011;60208;48.692;8.948;2023-08-06T02:27:31;3.35;;;3.05;;
72273;SDS011;60208;48.692;8.948;2023-08-06T02:30:50;4.22;;;2.90;;
72273;SDS011;60208;48.692;8.948;2023-08-06T02:34:08;3.45;;;2.70;;
72273;SDS011;60208;48.692;8.948;2023-08-06T02:37:26;3.38;;;3.00;;
72273;SDS011;60208;48.692;8.948;2023-08-06T02:40:45;4.22;;;2.50;;
72273;SDS011;60208;48.692;8.948;2023-08-06T02:44:03;3.38;;;2.60;;
72273;SDS011;60208;48.692;8.948;2023-08-06T02:47:21;8.32;;;2.90;;
72273;SDS011;60208;48.692;8.948;2023-08-06T02:50:39;5.78;;;2.90;;
72273;SDS011;60208;48.692;8.948;2023-08-06T02:53:57;4.32;;;2.50;;
72273;SDS011;60208;48.692;8.948;2023-08-06T02:57:15;3.47;;;2.58;;
72273;SDS011;60208;48.692;8.948;2023-08-06T03:00:33;7.95;;;2.88;;
72273;SDS011;60208;48.692;8.948;2023-08-06T03:03:52;3.50;;;2.63;;
72273;SDS011;60208;48.692;8.948;2023-08-06T03:07:09;2.60;;;2.40;;
72273;SDS011;60208;48.692;8.948;2023-08-06T03:10:27;4.18;;;2.72;;
72273;SDS011;60208;48.692;8.948;2023-08-06T03:13:46;4.63;;;2.40;;
72273;SDS011;60208;48.692;8.948;2023-08-06T03:17:04;2.78;;;2.55;;
72273;SDS011;60208;48.692;8.948;2023-08-06T03:20:22;2.70;;;2.50;;
72273;SDS011;60208;48.692;8.948;2023-08-06T03:23:40;4.72;;;2.40;;
72273;SDS011;60208;48.692;8.948;2023-08-06T03:26:58;6.00;;;3.10;;
72273;SDS011;60208;48.692;8.948;2023-08-06T03:30:16;4.47;;;2.60;;
72273;SDS011;60208;48.692;8.948;2023-08-06T03:33:34;4.53;;;2.70;;
72273;SDS011;60208;48.692;8.948;2023-08-06T03:36:51;3.75;;;2.53;;
72273;SDS011;60208;48.692;8.948;2023-08-06T03:40:09;5.05;;;2.63;;
72273;SDS011;60208;48.692;8.948;2023-08-06T03:43:28;4.30;;;2.75;;
72273;SDS011;60208;48.692;8.948;2023-08-06T03:46:45;4.88;;;2.80;;
72273;SDS011;60208;48.692;8.948;2023-08-06T03:50:03;3.85;;;2.40;;
72273;SDS011;60208;48.692;8.948;2023-08-06T03:53:22;3.13;;;2.58;;
72273;SDS011;60208;48.692;8.948;2023-08-06T03:56:40;3.25;;;2.38;;
72273;SDS011;60208;48.692;8.948;2023-08-06T03:59:58;3.65;;;2.60;;
72273;SDS011;60208;48.692;8.948;2023-08-06T04:06:40;5.30;;;2.60;;
72273;SDS011;60208;48.692;8.948;2023-08-06T04:09:58;4.13;;;2.47;;
72273;SDS011;60208;48.692;8.948;2023-08-06T04:13:17;4.10;;;2.30;;
72273;SDS011;60208;48.692;8.948;2023-08-06T04:16:35;3.25;;;2.22;;
72273;SDS011;60208;48.692;8.948;2023-08-06T04:19:53;6.40;;;2.00;;
72273;SDS011;60208;48.692;8.948;2023-08-06T04:23:12;2.70;;;1.90;;
72273;SDS011;60208;48.692;8.948;2023-08-06T04:26:30;5.43;;;1.80;;
72273;SDS011;60208;48.692;8.948;2023-08-06T04:29:48;2.30;;;1.60;;
72273;SDS011;60208;48.692;8.948;2023-08-06T04:33:06;3.67;;;1.92;;
72273;SDS011;60208;48.692;8.948;2023-08-06T04:36:24;3.42;;;1.92;;
72273;SDS011;60208;48.692;8.948;2023-08-06T04:39:42;2.13;;;1.73;;
72273;SDS011;60208;48.692;8.948;2023-08-06T04:43:00;3.30;;;1.58;;
72273;SDS011;60208;48.692;8.948;2023-08-06T04:46:18;5.10;;;1.75;;
72273;SDS011;60208;48.692;8.948;2023-08-06T04:49:36;3.85;;;2.05;;
72273;SDS011;60208;48.692;8.948;2023-08-06T04:52:54;3.20;;;1.60;;
72273;SDS011;60208;48.692;8.948;2023-08-06T04:56:11;2.25;;;1.20;;
72273;SDS011;60208;48.692;8.948;2023-08-06T04:59:30;2.92;;;1.05;;
72273;SDS011;60208;48.692;8.948;2023-08-06T05:02:47;1.83;;;0.80;;
72273;SDS011;60208;48.692;8.948;2023-08-06T05:06:05;1.55;;;0.80;;
72273;SDS011;60208;48.692;8.948;2023-08-06T05:09:23;2.30;;;0.70;;
72273;SDS011;60208;48.692;8.948;2023-08-06T05:12:41;3.22;;;0.88;;
72273;SDS011;60208;48.692;8.948;2023-08-06T05:15:59;1.40;;;0.70;;
72273;SDS011;60208;48.692;8.948;2023-08-06T05:19:17;1.35;;;0.60;;
72273;SDS011;60208;48.692;8.948;2023-08-06T05:22:35;2.15;;;0.65;;
72273;SDS011;60208;48.692;8.948;2023-08-06T05:25:53;2.70;;;0.80;;
72273;SDS011;60208;48.692;8.948;2023-08-06T05:29:12;2.40;;;0.52;;
72273;SDS011;60208;48.692;8.948;2023-08-06T05:32:30;1.42;;;0.57;;
72273;SDS011;60208;48.692;8.948;2023-08-06T05:35:49;2.25;;;0.80;;
72273;SDS011;60208;48.692;8.948;2023-08-06T05:39:07;1.67;;;0.80;;
72273;SDS011;60208;48.692;8.948;2023-08-06T05:42:25;1.67;;;0.70;;
72273;SDS011;60208;48.692;8.948;2023-08-06T05:45:44;1.08;;;0.47;;
72273;SDS011;60208;48.692;8.948;2023-08-06T05:49:02;3.30;;;0.70;;
72273;SDS011;60208;48.692;8.948;2023-08-06T05:52:20;1.85;;;0.57;;
72273;SDS011;60208;48.692;8.948;2023-08-06T05:55:39;1.77;;;0.65;;
72273;SDS011;60208;48.692;8.948;2023-08-06T05:58:56;2.72;;;0.63;;
72273;SDS011;60208;48.692;8.948;2023-08-06T06:02:14;1.25;;;0.60;;
72273;SDS011;60208;48.692;8.948;2023-08-06T06:05:32;1.55;;;0.70;;
72273;SDS011;60208;48.692;8.948;2023-08-06T06:08:50;1.85;;;0.77;;
72273;SDS011;60208;48.692;8.948;2023-08-06T06:12:08;3.67;;;0.60;;
72273;SDS011;60208;48.692;8.948;2023-08-06T06:15:26;3.33;;;0.80;;
72273;SDS011;60208;48.692;8.948;2023-08-06T06:18:44;1.42;;;0.70;;
72273;SDS011;60208;48.692;8.948;2023-08-06T06:22:02;0.90;;;0.60;;
72273;SDS011;60208;48.692;8.948;2023-08-06T06:25:20;1.25;;;0.52;;
72273;SDS011;60208;48.692;8.948;2023-08-06T06:28:38;0.70;;;0.50;;
72273;SDS011;60208;48.692;8.948;2023-08-06T06:31:56;2.08;;;0.70;;
72273;SDS011;60208;48.692;8.948;2023-08-06T06:35:14;1.58;;;0.70;;
72273;SDS011;60208;48.692;8.948;2023-08-06T06:38:33;1.33;;;0.70;;
72273;SDS011;60208;48.692;8.948;2023-08-06T06:41:51;1.70;;;0.52;;
72273;SDS011;60208;48.692;8.948;2023-08-06T06:45:09;1.50;;;0.50;;
72273;SDS011;60208;48.692;8.948;2023-08-06T06:48:27;1.27;;;0.50;;
72273;SDS011;60208;48.692;8.948;2023-08-06T06:51:45;1.40;;;0.43;;
72273;SDS011;60208;48.692;8.948;2023-08-06T06:55:03;0.93;;;0.50;;
72273;SDS011;60208;48.692;8.948;2023-08-06T06:58:21;0.40;;;0.40;;
72273;SDS011;60208;48.692;8.948;2023-08-06T07:01:39;11.00;;;1.00;;
72273;SDS011;60208;48.692;8.948;2023-08-06T07:04:57;1.75;;;0.80;;
72273;SDS011;60208;48.692;8.948;2023-08-06T07:08:15;4.18;;;1.08;;
72273;SDS011;60208;48.692;8.948;2023-08-06T07:11:33;2.05;;;0.63;;
72273;SDS011;60208;48.692;8.948;2023-08-06T07:14:51;0.80;;;0.60;;
72273;SDS011;60208;48.692;8.948;2023-08-06T07:18:09;1.40;;;0.65;;
72273;SDS011;60208;48.692;8.948;2023-08-06T07:21:27;1.88;;;0.57;;
72273;SDS011;60208;48.692;8.948;2023-08-06T07:24:45;2.97;;;0.50;;
72273;SDS011;60208;48.692;8.948;2023-08-06T07:28:03;1.38;;;0.50;;
72273;SDS011;60208;48.692;8.948;2023-08-06T07:31:21;0.47;;;0.40;;
72273;SDS011;60208;48.692;8.948;2023-08-06T07:34:39;0.85;;;0.38;;
72273;SDS011;60208;48.692;8.948;2023-08-06T07:37:57;0.75;;;0.20;;
72273;SDS011;60208;48.692;8.948;2023-08-06T07:41:20;0.50;;;0.25;;
72273;SDS011;60208;48.692;8.948;2023-08-06T07:44:38;0.20;;;0.17;;
72273;SDS011;60208;48.692;8.948;2023-08-06T07:48:02;0.20;;;0.17;;
72273;SDS011;60208;48.692;8.948;2023-08-06T07:51:20;0.22;;;0.20;;
72273;SDS011;60208;48.692;8.948;2023-08-06T07:54:38;0.20;;;0.20;;
72273;SDS011;60208;48.692;8.948;2023-08-06T07:57:56;0.52;;;0.30;;
72273;SDS011;60208;48.692;8.948;2023-08-06T08:01:14;0.20;;;0.10;;
72273;SDS011;60208;48.692;8.948;2023-08-06T08:04:32;0.22;;;0.10;;
72273;SDS011;60208;48.692;8.948;2023-08-06T08:07:50;0.00;;;0.00;;
72273;SDS011;60208;48.692;8.948;2023-08-06T08:11:08;0.10;;;0.10;;
72273;SDS011;60208;48.692;8.948;2023-08-06T08:14:27;0.70;;;0.17;;
72273;SDS011;60208;48.692;8.948;2023-08-06T08:17:45;0.35;;;0.20;;
72273;SDS011;60208;48.692;8.948;2023-08-06T08:21:03;1.85;;;0.10;;
72273;SDS011;60208;48.692;8.948;2023-08-06T08:24:21;0.80;;;0.03;;
72273;SDS011;60208;48.692;8.948;2023-08-06T08:27:40;1.67;;;0.10;;
72273;SDS011;60208;48.692;8.948;2023-08-06T08:30:58;0.40;;;0.30;;
72273;SDS011;60208;48.692;8.948;2023-08-06T08:34:16;1.52;;;0.20;;
72273;SDS011;60208;48.692;8.948;2023-08-06T08:37:34;0.22;;;0.20;;
72273;SDS011;60208;48.692;8.948;2023-08-06T08:40:53;0.20;;;0.20;;
72273;SDS011;60208;48.692;8.948;2023-08-06T08:44:11;0.20;;;0.20;;
72273;SDS011;60208;48.692;8.948;2023-08-06T08:47:32;0.20;;;0.20;;
72273;SDS011;60208;48.692;8.948;2023-08-06T08:50:52;0.75;;;0.10;;
72273;SDS011;60208;48.692;8.948;2023-08-06T08:54:11;0.20;;;0.10;;
72273;SDS011;60208;48.692;8.948;2023-08-06T08:57:31;1.15;;;0.13;;
72273;SDS011;60208;48.692;8.948;2023-08-06T09:00:49;0.03;;;0.03;;
72273;SDS011;60208;48.692;8.948;2023-08-06T09:04:07;1.05;;;0.10;;
72273;SDS011;60208;48.692;8.948;2023-08-06T09:07:27;0.08;;;0.00;;
72273;SDS011;60208;48.692;8.948;2023-08-06T09:10:48;0.28;;;0.10;;
72273;SDS011;60208;48.692;8.948;2023-08-06T09:14:10;0.20;;;0.10;;
72273;SDS011;60208;48.692;8.948;2023-08-06T09:17:28;0.45;;;0.20;;
72273;SDS011;60208;48.692;8.948;2023-08-06T09:20:53;0.32;;;0.10;;
72273;SDS011;60208;48.692;8.948;2023-08-06T09:24:15;0.30;;;0.10;;
72273;SDS011;60208;48.692;8.948;2023-08-06T09:27:38;0.43;;;0.10;;
72273;SDS011;60208;48.692;8.948;2023-08-06T09:31:04;0.10;;;0.10;;
72273;SDS011;60208;48.692;8.948;2023-08-06T09:34:23;0.00;;;0.00;;
72273;SDS011;60208;48.692;8.948;2023-08-06T09:37:41;0.25;;;0.10;;
72273;SDS011;60208;48.692;8.948;2023-08-06T09:41:02;0.10;;;0.10;;
72273;SDS011;60208;48.692;8.948;2023-08-06T09:44:24;0.28;;;0.10;;
72273;SDS011;60208;48.692;8.948;2023-08-06T09:47:42;8.18;;;0.25;;
72273;SDS011;60208;48.692;8.948;2023-08-06T09:51:00;2.80;;;0.25;;
72273;SDS011;60208;48.692;8.948;2023-08-06T09:54:23;0.63;;;0.17;;
72273;SDS011;60208;48.692;8.948;2023-08-06T09:57:42;1.02;;;0.20;;
72273;SDS011;60208;48.692;8.948;2023-08-06T10:01:00;1.90;;;0.20;;
72273;SDS011;60208;48.692;8.948;2023-08-06T10:04:19;1.75;;;0.30;;
72273;SDS011;60208;48.692;8.948;2023-08-06T10:07:37;0.10;;;0.10;;
72273;SDS011;60208;48.692;8.948;2023-08-06T10:10:55;0.30;;;0.15;;
72273;SDS011;60208;48.692;8.948;2023-08-06T10:14:21;0.75;;;0.20;;
72273;SDS011;60208;48.692;8.948;2023-08-06T10:17:42;1.10;;;0.30;;
72273;SDS011;60208;48.692;8.948;2023-08-06T10:21:01;0.95;;;0.17;;
72273;SDS011;60208;48.692;8.948;2023-08-06T10:24:45;2.38;;;0.20;;
72273;SDS011;60208;48.692;8.948;2023-08-06T10:28:10;0.10;;;0.10;;
72273;SDS011;60208;48.692;8.948;2023-08-06T10:31:53;0.35;;;0.13;;
72273;SDS011;60208;48.692;8.948;2023-08-06T10:35:27;0.73;;;0.40;;
72273;SDS011;60208;48.692;8.948;2023-08-06T10:38:48;0.32;;;0.30;;
72273;SDS011;60208;48.692;8.948;2023-08-06T10:42:19;1.52;;;0.20;;
72273;SDS011;60208;48.692;8.948;2023-08-06T10:45:49;0.30;;;0.20;;
72273;SDS011;60208;48.692;8.948;2023-08-06T10:49:07;2.00;;;0.60;;
72273;SDS011;60208;48.692;8.948;2023-08-06T10:52:25;0.38;;;0.38;;
72273;SDS011;60208;48.692;8.948;2023-08-06T10:55:43;0.32;;;0.20;;
72273;SDS011;60208;48.692;8.948;2023-08-06T10:59:04;1.50;;;0.38;;
72273;SDS011;60208;48.692;8.948;2023-08-06T11:02:22;0.38;;;0.17;;
72273;SDS011;60208;48.692;8.948;2023-08-06T11:05:40;0.90;;;0.20;;
72273;SDS011;60208;48.692;8.948;2023-08-06T11:08:58;1.17;;;0.20;;
72273;SDS011;60208;48.692;8.948;2023-08-06T11:12:18;0.52;;;0.52;;
72273;SDS011;60208;48.692;8.948;2023-08-06T11:15:36;0.40;;;0.40;;
72273;SDS011;60208;48.692;8.948;2023-08-06T11:18:54;1.13;;;0.50;;
72273;SDS011;60208;48.692;8.948;2023-08-06T11:22:14;0.93;;;0.50;;
72273;SDS011;60208;48.692;8.948;2023-08-06T11:25:53;0.75;;;0.75;;
72273;SDS011;60208;48.692;8.948;2023-08-06T11:29:10;0.82;;;0.55;;
72273;SDS011;60208;48.692;8.948;2023-08-06T11:32:28;0.50;;;0.50;;
72273;SDS011;60208;48.692;8.948;2023-08-06T11:35:54;1.40;;;0.60;;
72273;SDS011;60208;48.692;8.948;2023-08-06T11:39:12;0.60;;;0.60;;
72273;SDS011;60208;48.692;8.948;2023-08-06T11:42:33;2.65;;;0.70;;
72273;SDS011;60208;48.692;8.948;2023-08-06T11:45:51;1.52;;;0.85;;
72273;SDS011;60208;48.692;8.948;2023-08-06T11:49:21;0.70;;;0.60;;
72273;SDS011;60208;48.692;8.948;2023-08-06T11:52:46;1.02;;;0.50;;
72273;SDS011;60208;48.692;8.948;2023-08-06T11:56:04;1.08;;;0.90;;
72273;SDS011;60208;48.692;8.948;2023-08-06T11:59:22;1.50;;;0.88;;
72273;SDS011;60208;48.692;8.948;2023-08-06T12:02:44;1.30;;;0.70;;
72273;SDS011;60208;48.692;8.948;2023-08-06T12:06:05;0.70;;;0.70;;
72273;SDS011;60208;48.692;8.948;2023-08-06T12:09:29;0.80;;;0.70;;
72273;SDS011;60208;48.692;8.948;2023-08-06T12:12:49;0.52;;;0.52;;
72273;SDS011;60208;48.692;8.948;2023-08-06T12:16:07;1.45;;;0.70;;
72273;SDS011;60208;48.692;8.948;2023-08-06T12:19:25;1.10;;;0.60;;
72273;SDS011;60208;48.692;8.948;2023-08-06T12:22:43;1.17;;;0.80;;
72273;SDS011;60208;48.692;8.948;2023-08-06T12:26:01;0.70;;;0.70;;
72273;SDS011;60208;48.692;8.948;2023-08-06T12:29:19;1.05;;;0.70;;
72273;SDS011;60208;48.692;8.948;2023-08-06T12:32:37;1.80;;;0.77;;
72273;SDS011;60208;48.692;8.948;2023-08-06T12:35:55;0.80;;;0.70;;
72273;SDS011;60208;48.692;8.948;2023-08-06T12:39:13;0.75;;;0.75;;
72273;SDS011;60208;48.692;8.948;2023-08-06T12:42:31;0.90;;;0.70;;
72273;SDS011;60208;48.692;8.948;2023-08-06T12:45:49;1.13;;;1.02;;
72273;SDS011;60208;48.692;8.948;2023-08-06T12:49:07;0.85;;;0.85;;
72273;SDS011;60208;48.692;8.948;2023-08-06T12:52:25;2.55;;;1.10;;
72273;SDS011;60208;48.692;8.948;2023-08-06T12:55:46;0.82;;;0.82;;
72273;SDS011;60208;48.692;8.948;2023-08-06T12:59:03;1.35;;;0.70;;
72273;SDS011;60208;48.692;8.948;2023-08-06T13:02:21;1.05;;;0.70;;
72273;SDS011;60208;48.692;8.948;2023-08-06T13:05:39;1.77;;;0.70;;
72273;SDS011;60208;48.692;8.948;2023-08-06T13:09:07;1.77;;;0.70;;
72273;SDS011;60208;48.692;8.948;2023-08-06T13:12:26;1.23;;;0.65;;
72273;SDS011;60208;48.692;8.948;2023-08-06T13:15:43;0.93;;;0.68;;
72273;SDS011;60208;48.692;8.948;2023-08-06T13:19:02;1.30;;;0.85;;
72273;SDS011;60208;48.692;8.948;2023-08-06T13:22:20;0.75;;;0.70;;
72273;SDS011;60208;48.692;8.948;2023-08-06T13:25:41;0.70;;;0.70;;
72273;SDS011;60208;48.692;8.948;2023-08-06T13:28:59;0.63;;;0.43;;
72273;SDS011;60208;48.692;8.948;2023-08-06T13:32:17;0.80;;;0.60;;
72273;SDS011;60208;48.692;8.948;2023-08-06T13:35:35;0.40;;;0.40;;
72273;SDS011;60208;48.692;8.948;2023-08-06T13:38:53;0.40;;;0.40;;
72273;SDS011;60208;48.692;8.948;2023-08-06T13:42:11;1.15;;;0.45;;
72273;SDS011;60208;48.692;8.948;2023-08-06T13:45:29;3.20;;;0.75;;
72273;SDS011;60208;48.692;8.948;2023-08-06T13:48:47;0.60;;;0.40;;
72273;SDS011;60208;48.692;8.948;2023-08-06T13:52:05;0.80;;;0.43;;
72273;SDS011;60208;48.692;8.948;2023-08-06T13:55:23;0.95;;;0.50;;
72273;SDS011;60208;48.692;8.948;2023-08-06T13:58:43;2.53;;;0.68;;
72273;SDS011;60208;48.692;8.948;2023-08-06T14:02:01;0.77;;;0.60;;
72273;SDS011;60208;48.692;8.948;2023-08-06T14:05:19;1.02;;;0.75;;
72273;SDS011;60208;48.692;8.948;2023-08-06T14:08:36;1.08;;;0.60;;
72273;SDS011;60208;48.692;8.948;2023-08-06T14:11:55;2.95;;;0.52;;
72273;SDS011;60208;48.692;8.948;2023-08-06T14:15:13;1.48;;;0.70;;
72273;SDS011;60208;48.692;8.948;2023-08-06T14:18:31;0.75;;;0.70;;
72273;SDS011;60208;48.692;8.948;2023-08-06T14:21:49;0.85;;;0.63;;
72273;SDS011;60208;48.692;8.948;2023-08-06T14:25:07;0.55;;;0.50;;
72273;SDS011;60208;48.692;8.948;2023-08-06T14:28:25;1.83;;;0.60;;
72273;SDS011;60208;48.692;8.948;2023-08-06T14:31:43;0.55;;;0.55;;
72273;SDS011;60208;48.692;8.948;2023-08-06T14:35:00;1.20;;;0.60;;
72273;SDS011;60208;48.692;8.948;2023-08-06T14:38:18;0.70;;;0.50;;
72273;SDS011;60208;48.692;8.948;2023-08-06T14:41:39;0.85;;;0.60;;
72273;SDS011;60208;48.692;8.948;2023-08-06T14:44:59;0.75;;;0.60;;
72273;SDS011;60208;48.692;8.948;2023-08-06T14:48:17;0.95;;;0.60;;
72273;SDS011;60208;48.692;8.948;2023-08-06T14:51:37;0.73;;;0.60;;
72273;SDS011;60208;48.692;8.948;2023-08-06T14:54:55;1.35;;;0.73;;
72273;SDS011;60208;48.692;8.948;2023-08-06T14:58:13;1.85;;;0.90;;
72273;SDS011;60208;48.692;8.948;2023-08-06T15:01:31;0.80;;;0.70;;
72273;SDS011;60208;48.692;8.948;2023-08-06T15:04:49;1.52;;;0.80;;
72273;SDS011;60208;48.692;8.948;2023-08-06T15:08:12;0.97;;;0.70;;
72273;SDS011;60208;48.692;8.948;2023-08-06T15:11:30;1.25;;;0.75;;
72273;SDS011;60208;48.692;8.948;2023-08-06T15:14:48;1.63;;;0.80;;
72273;SDS011;60208;48.692;8.948;2023-08-06T15:18:07;1.20;;;0.60;;
72273;SDS011;60208;48.692;8.948;2023-08-06T15:21:26;1.50;;;0.70;;
72273;SDS011;60208;48.692;8.948;2023-08-06T15:24:44;1.50;;;0.60;;
72273;SDS011;60208;48.692;8.948;2023-08-06T15:28:01;0.80;;;0.50;;
72273;SDS011;60208;48.692;8.948;2023-08-06T15:31:20;1.88;;;0.60;;
72273;SDS011;60208;48.692;8.948;2023-08-06T15:34:38;0.95;;;0.50;;
72273;SDS011;60208;48.692;8.948;2023-08-06T15:37:56;0.88;;;0.50;;
72273;SDS011;60208;48.692;8.948;2023-08-06T15:41:14;1.05;;;0.60;;
72273;SDS011;60208;48.692;8.948;2023-08-06T15:44:32;0.63;;;0.50;;
72273;SDS011;60208;48.692;8.948;2023-08-06T15:47:49;1.10;;;0.50;;
72273;SDS011;60208;48.692;8.948;2023-08-06T15:51:07;0.80;;;0.47;;
72273;SDS011;60208;48.692;8.948;2023-08-06T15:54:25;1.08;;;0.75;;
72273;SDS011;60208;48.692;8.948;2023-08-06T15:57:44;0.88;;;0.77;;
72273;SDS011;60208;48.692;8.948;2023-08-06T16:01:02;1.05;;;0.70;;
72273;SDS011;60208;48.692;8.948;2023-08-06T16:04:23;1.42;;;0.60;;
72273;SDS011;60208;48.692;8.948;2023-08-06T16:07:41;0.82;;;0.60;;
72273;SDS011;60208;48.692;8.948;2023-08-06T16:10:59;1.15;;;0.63;;
72273;SDS011;60208;48.692;8.948;2023-08-06T16:14:17;1.20;;;0.63;;
72273;SDS011;60208;48.692;8.948;2023-08-06T16:17:35;0.47;;;0.45;;
72273;SDS011;60208;48.692;8.948;2023-08-06T16:20:53;1.95;;;0.60;;
72273;SDS011;60208;48.692;8.948;2023-08-06T16:24:11;0.52;;;0.47;;
72273;SDS011;60208;48.692;8.948;2023-08-06T16:27:29;0.70;;;0.60;;
72273;SDS011;60208;48.692;8.948;2023-08-06T16:30:47;1.63;;;0.60;;
72273;SDS011;60208;48.692;8.948;2023-08-06T16:34:05;1.52;;;0.50;;
72273;SDS011;60208;48.692;8.948;2023-08-06T16:37:23;0.73;;;0.50;;
72273;SDS011;60208;48.692;8.948;2023-08-06T16:40:41;2.65;;;0.70;;
72273;SDS011;60208;48.692;8.948;2023-08-06T16:44:00;0.60;;;0.52;;
72273;SDS011;60208;48.692;8.948;2023-08-06T16:47:18;3.22;;;0.63;;
72273;SDS011;60208;48.692;8.948;2023-08-06T16:50:37;1.58;;;0.70;;
72273;SDS011;60208;48.692;8.948;2023-08-06T16:53:55;1.50;;;0.60;;
72273;SDS011;60208;48.692;8.948;2023-08-06T16:57:14;0.65;;;0.60;;
72273;SDS011;60208;48.692;8.948;2023-08-06T17:00:32;0.68;;;0.68;;
72273;SDS011;60208;48.692;8.948;2023-08-06T17:03:50;0.95;;;0.85;;
72273;SDS011;60208;48.692;8.948;2023-08-06T17:07:10;0.77;;;0.70;;
72273;SDS011;60208;48.692;8.948;2023-08-06T17:10:30;1.02;;;0.90;;
72273;SDS011;60208;48.692;8.948;2023-08-06T17:13:48;1.25;;;0.90;;
72273;SDS011;60208;48.692;8.948;2023-08-06T17:17:07;1.85;;;0.98;;
72273;SDS011;60208;48.692;8.948;2023-08-06T17:20:24;4.70;;;1.20;;
72273;SDS011;60208;48.692;8.948;2023-08-06T17:23:42;1.27;;;1.17;;
72273;SDS011;60208;48.692;8.948;2023-08-06T17:27:01;1.77;;;1.10;;
72273;SDS011;60208;48.692;8.948;2023-08-06T17:30:18;1.58;;;1.25;;
72273;SDS011;60208;48.692;8.948;2023-08-06T17:33:38;2.50;;;1.20;;
72273;SDS011;60208;48.692;8.948;2023-08-06T17:36:56;2.55;;;1.20;;
72273;SDS011;60208;48.692;8.948;2023-08-06T17:40:13;1.50;;;1.10;;
72273;SDS011;60208;48.692;8.948;2023-08-06T17:43:31;2.00;;;1.00;;
72273;SDS011;60208;48.692;8.948;2023-08-06T17:46:51;1.98;;;1.15;;
72273;SDS011;60208;48.692;8.948;2023-08-06T17:50:09;1.80;;;1.38;;
72273;SDS011;60208;48.692;8.948;2023-08-06T17:53:27;2.22;;;1.60;;
72273;SDS011;60208;48.692;8.948;2023-08-06T17:56:45;3.45;;;1.40;;
72273;SDS011;60208;48.692;8.948;2023-08-06T18:00:03;2.42;;;1.20;;
72273;SDS011;60208;48.692;8.948;2023-08-06T18:03:21;2.28;;;1.50;;
72273;SDS011;60208;48.692;8.948;2023-08-06T18:06:41;3.17;;;1.48;;
72273;SDS011;60208;48.692;8.948;2023-08-06T18:09:59;3.13;;;1.60;;
72273;SDS011;60208;48.692;8.948;2023-08-06T18:13:17;1.67;;;1.10;;
72273;SDS011;60208;48.692;8.948;2023-08-06T18:16:35;2.22;;;1.30;;
72273;SDS011;60208;48.692;8.948;2023-08-06T18:19:53;2.10;;;1.23;;
72273;SDS011;60208;48.692;8.948;2023-08-06T18:23:11;3.13;;;1.33;;
72273;SDS011;60208;48.692;8.948;2023-08-06T18:26:29;2.83;;;1.58;;
72273;SDS011;60208;48.692;8.948;2023-08-06T18:29:48;2.20;;;1.45;;
72273;SDS011;60208;48.692;8.948;2023-08-06T18:33:06;4.45;;;1.60;;
72273;SDS011;60208;48.692;8.948;2023-08-06T18:36:24;2.25;;;1.48;;
72273;SDS011;60208;48.692;8.948;2023-08-06T18:39:42;2.53;;;1.63;;
72273;SDS011;60208;48.692;8.948;2023-08-06T18:43:00;3.35;;;1.40;;
72273;SDS011;60208;48.692;8.948;2023-08-06T18:46:18;3.87;;;1.67;;
72273;SDS011;60208;48.692;8.948;2023-08-06T18:49:36;2.83;;;2.08;;
72273;SDS011;60208;48.692;8.948;2023-08-06T18:52:54;4.20;;;1.65;;
72273;SDS011;60208;48.692;8.948;2023-08-06T18:56:11;3.55;;;1.33;;
72273;SDS011;60208;48.692;8.948;2023-08-06T18:59:30;2.28;;;1.48;;
72273;SDS011;60208;48.692;8.948;2023-08-06T19:02:48;3.83;;;1.58;;
72273;SDS011;60208;48.692;8.948;2023-08-06T19:06:07;3.00;;;1.60;;
72273;SDS011;60208;48.692;8.948;2023-08-06T19:09:25;2.08;;;1.25;;
72273;SDS011;60208;48.692;8.948;2023-08-06T19:12:43;3.05;;;1.70;;
72273;SDS011;60208;48.692;8.948;2023-08-06T19:16:01;2.67;;;1.52;;
72273;SDS011;60208;48.692;8.948;2023-08-06T19:19:21;3.90;;;1.45;;
72273;SDS011;60208;48.692;8.948;2023-08-06T19:22:39;1.90;;;1.20;;
72273;SDS011;60208;48.692;8.948;2023-08-06T19:25:59;2.53;;;1.52;;
72273;SDS011;60208;48.692;8.948;2023-08-06T19:29:17;2.42;;;1.40;;
72273;SDS011;60208;48.692;8.948;2023-08-06T19:32:35;3.00;;;1.20;;
72273;SDS011;60208;48.692;8.948;2023-08-06T19:35:53;2.00;;;1.20;;
72273;SDS011;60208;48.692;8.948;2023-08-06T19:39:11;2.65;;;1.48;;
72273;SDS011;60208;48.692;8.948;2023-08-06T19:42:31;3.38;;;1.40;;
72273;SDS011;60208;48.692;8.948;2023-08-06T19:45:49;2.30;;;1.38;;
72273;SDS011;60208;48.692;8.948;2023-08-06T19:49:09;1.95;;;1.30;;
72273;SDS011;60208;48.692;8.948;2023-08-06T19:52:27;2.72;;;1.20;;
72273;SDS011;60208;48.692;8.948;2023-08-06T19:55:45;2.85;;;1.27;;
72273;SDS011;60208;48.692;8.948;2023-08-06T19:59:03;3.30;;;1.25;;
72273;SDS011;60208;48.692;8.948;2023-08-06T20:02:20;2.45;;;1.08;;
72273;SDS011;60208;48.692;8.948;2023-08-06T20:05:39;1.27;;;1.00;;
72273;SDS011;60208;48.692;8.948;2023-08-06T20:08:57;2.65;;;1.25;;